TimeCST,TemperatureF,Dew PointF,Humidity,Sea Level PressureIn,VisibilityMPH,Wind Direction,Wind SpeedMPH,Gust SpeedMPH,PrecipitationIn,Events,Conditions,WindDirDegrees,DateUTC
12:56 AM,2.1,-4.0,76,30.04,10.0,Calm,Calm,-,N/A,,Clear,0,2014-02-15 06:56:00
1:56 AM,-1.8,-6.0,83,30.05,10.0,Calm,Calm,-,N/A,,Clear,0,2014-02-15 07:56:00
2:56 AM,-6.0,-9.9,83,30.06,10.0,NW,5.8,-,N/A,,Clear,310,2014-02-15 08:56:00
3:56 AM,-6.9,-10.8,83,30.07,10.0,Calm,Calm,-,N/A,,Clear,0,2014-02-15 09:56:00
4:56 AM,-9.9,-15.0,78,30.09,10.0,Calm,Calm,-,N/A,,Clear,0,2014-02-15 10:56:00
5:56 AM,-10.8,-15.9,78,30.06,10.0,Calm,Calm,-,N/A,,Clear,0,2014-02-15 11:56:00
6:56 AM,-13.0,-18.9,75,30.08,10.0,Calm,Calm,-,N/A,,Clear,0,2014-02-15 12:56:00
7:56 AM,-9.9,-17.0,71,30.11,10.0,Calm,Calm,-,N/A,,Clear,0,2014-02-15 13:56:00
8:56 AM,-0.9,-8.0,72,30.10,10.0,Calm,Calm,-,N/A,,Clear,0,2014-02-15 14:56:00
9:56 AM,9.1,-2.9,58,30.08,10.0,SSE,6.9,-,N/A,,Clear,160,2014-02-15 15:56:00
10:56 AM,14.0,-0.9,52,30.06,10.0,South,5.8,-,N/A,,Clear,180,2014-02-15 16:56:00
11:56 AM,16.2,1.0,51,30.03,10.0,SSE,8.1,-,N/A,,Clear,150,2014-02-15 17:56:00
12:56 PM,19.0,2.1,48,30.00,10.0,SSW,8.1,-,N/A,,Clear,210,2014-02-15 18:56:00
1:56 PM,20.1,3.0,48,29.98,10.0,Calm,Calm,-,N/A,,Mostly Cloudy,0,2014-02-15 19:56:00
2:56 PM,21.0,3.0,46,29.98,10.0,SSE,6.9,-,N/A,,Partly Cloudy,160,2014-02-15 20:56:00
3:56 PM,20.1,4.1,50,29.99,10.0,SSE,8.1,-,N/A,,Scattered Clouds,150,2014-02-15 21:56:00
4:56 PM,18.1,5.0,57,29.99,10.0,SE,8.1,-,N/A,,Mostly Cloudy,140,2014-02-15 22:56:00
5:56 PM,17.6,6.8,63,29.93,10.0,SE,8.1,-,N/A,,Overcast,140,2014-02-15 23:56:00
6:56 PM,16.2,7.2,68,29.99,4.0,East,5.8,-,0.00,Snow,Light Snow,100,2014-02-16 00:56:00
7:32 PM,15.8,8.6,73,29.94,6.0,Calm,Calm,-,0.00,Snow,Light Snow,0,2014-02-16 01:32:00
7:42 PM,15.8,8.6,73,29.94,10.0,Calm,Calm,-,0.00,Snow,Light Snow,0,2014-02-16 01:42:00
7:56 PM,15.1,9.1,77,29.99,10.0,East,4.6,-,0.00,Snow,Light Snow,90,2014-02-16 01:56:00
8:56 PM,15.8,10.4,79,29.94,3.0,Calm,Calm,-,N/A,Snow,Light Snow,0,2014-02-16 02:56:00
9:04 PM,15.8,10.4,79,29.94,4.0,Calm,Calm,-,0.00,Snow,Light Snow,0,2014-02-16 03:04:00
9:25 PM,15.8,10.4,79,29.94,5.0,Calm,Calm,-,0.00,Snow,Light Snow,0,2014-02-16 03:25:00
9:56 PM,15.1,11.1,84,29.99,4.0,Calm,Calm,-,0.00,Snow,Light Snow,0,2014-02-16 03:56:00
10:56 PM,15.1,11.1,84,29.98,8.0,Calm,Calm,-,0.00,Snow,Light Snow,0,2014-02-16 04:56:00
11:56 PM,14.0,10.4,86,29.94,10.0,Calm,Calm,-,N/A,Snow,Light Snow,0,2014-02-16 05:56:00